Time;durP1;ratioP1;P1;durP2;ratioP2;P2;SDS_P1;SDS_P2;PMS_P1;PMS_P2;Temp;Humidity;BMP_temperature;BMP_pressure;BME280_temperature;BME280_humidity;BME280_pressure;Samples;Min_cycle;Max_cycle;Signal;HPM_P1;HPM_P2
2021/05/15 00:01:45;;;;;;;17.90;12.88;;;;;;;;;;4974990;28;20377;-72
2021/05/15 00:04:11;;;;;;;16.52;12.63;;;;;;;;;;4974728;28;20430;-74
2021/05/15 00:06:37;;;;;;;15.35;12.05;;;;;;;;;;4975187;28;20042;-74
2021/05/15 00:09:04;;;;;;;15.68;13.02;;;;;;;;;;4975229;28;20022;-73
2021/05/15 00:11:30;;;;;;;16.73;10.98;;;;;;;;;;4974897;28;20035;-74
2021/05/15 00:13:56;;;;;;;15.63;11.85;;;;;;;;;;4974626;28;20445;-74
2021/05/15 00:16:22;;;;;;;16.35;11.52;;;;;;;;;;4975122;28;20102;-72
2021/05/15 00:18:48;;;;;;;11.50;10.27;;;;;;;;;;4975311;28;20081;-72
2021/05/15 00:21:14;;;;;;;12.20;10.90;;;;;;;;;;4975072;28;20507;-72
2021/05/15 00:23:40;;;;;;;11.52;9.98;;;;;;;;;;4974963;28;20097;-72
2021/05/15 00:26:06;;;;;;;15.07;11.43;;;;;;;;;;4974098;28;20069;-72
2021/05/15 00:28:32;;;;;;;12.25;10.68;;;;;;;;;;4975316;28;20027;-72
2021/05/15 00:30:58;;;;;;;13.45;10.55;;;;;;;;;;4975397;28;20381;-72
2021/05/15 00:33:25;;;;;;;11.68;10.48;;;;;;;;;;4974780;28;20121;-72
2021/05/15 00:35:51;;;;;;;12.95;9.82;;;;;;;;;;4974551;28;20465;-73
2021/05/15 00:38:17;;;;;;;14.23;10.00;;;;;;;;;;4974838;28;20031;-72
2021/05/15 00:40:43;;;;;;;12.90;11.40;;;;;;;;;;4974678;28;20031;-73
2021/05/15 00:43:09;;;;;;;10.82;9.50;;;;;;;;;;4975091;28;20031;-72
2021/05/15 00:45:36;;;;;;;11.77;9.30;;;;;;;;;;4974663;28;20417;-72
2021/05/15 00:48:02;;;;;;;12.40;11.10;;;;;;;;;;4974280;28;20473;-72
2021/05/15 00:50:29;;;;;;;13.50;9.10;;;;;;;;;;4974701;28;20023;-72
2021/05/15 00:52:55;;;;;;;12.70;8.88;;;;;;;;;;4974403;28;20058;-72
2021/05/15 00:55:21;;;;;;;15.88;9.48;;;;;;;;;;4974249;28;20038;-73
2021/05/15 00:57:47;;;;;;;9.27;8.32;;;;;;;;;;4974550;28;20029;-72
2021/05/15 01:00:14;;;;;;;12.13;9.15;;;;;;;;;;4974811;28;20030;-72
2021/05/15 01:02:40;;;;;;;11.68;8.82;;;;;;;;;;4974504;28;20027;-72
2021/05/15 01:05:07;;;;;;;9.10;8.10;;;;;;;;;;4974051;28;20038;-72
2021/05/15 01:07:33;;;;;;;10.88;8.10;;;;;;;;;;4974089;28;20023;-72
2021/05/15 01:09:59;;;;;;;11.18;8.02;;;;;;;;;;4974147;28;20026;-73
2021/05/15 01:12:25;;;;;;;9.52;8.52;;;;;;;;;;4974518;28;20050;-73
2021/05/15 01:14:51;;;;;;;9.10;7.85;;;;;;;;;;4974857;28;20023;-72
2021/05/15 01:17:17;;;;;;;7.63;6.85;;;;;;;;;;4974445;28;20452;-72
2021/05/15 01:19:43;;;;;;;12.55;8.23;;;;;;;;;;4974237;28;20018;-72
2021/05/15 01:22:10;;;;;;;9.07;7.88;;;;;;;;;;4974125;28;20114;-72
2021/05/15 01:24:37;;;;;;;7.65;6.95;;;;;;;;;;4973876;28;20030;-73
2021/05/15 01:27:10;;;;;;;10.27;7.10;;;;;;;;;;4974333;28;20058;-72
2021/05/15 01:29:36;;;;;;;11.90;7.72;;;;;;;;;;4974473;28;20102;-72
2021/05/15 01:32:02;;;;;;;8.57;6.80;;;;;;;;;;4973916;28;20477;-73
2021/05/15 01:34:28;;;;;;;9.05;7.63;;;;;;;;;;4973913;28;20035;-72
2021/05/15 01:36:54;;;;;;;7.90;6.68;;;;;;;;;;4973928;28;20497;-72
2021/05/15 01:39:21;;;;;;;6.85;6.13;;;;;;;;;;4976945;28;20031;-73
2021/05/15 01:41:47;;;;;;;8.10;7.00;;;;;;;;;;4977494;28;20384;-73
2021/05/15 01:44:13;;;;;;;12.55;6.47;;;;;;;;;;4977299;28;20081;-72
2021/05/15 01:46:39;;;;;;;7.18;6.25;;;;;;;;;;4977580;28;20066;-72
2021/05/15 01:49:05;;;;;;;8.18;6.40;;;;;;;;;;4977579;28;20128;-72
2021/05/15 01:51:32;;;;;;;6.50;5.90;;;;;;;;;;4977498;28;20110;-72
2021/05/15 01:53:58;;;;;;;6.25;5.70;;;;;;;;;;4976822;28;20035;-72
2021/05/15 01:56:24;;;;;;;6.97;6.35;;;;;;;;;;4978202;28;20023;-73
2021/05/15 01:58:51;;;;;;;7.07;6.38;;;;;;;;;;4977589;28;20031;-72
2021/05/15 02:01:17;;;;;;;6.32;5.72;;;;;;;;;;4977382;28;20054;-72
2021/05/15 02:03:43;;;;;;;7.35;6.00;;;;;;;;;;4977256;28;20070;-72
2021/05/15 02:06:09;;;;;;;6.25;5.65;;;;;;;;;;4976895;28;20504;-72
2021/05/15 02:08:36;;;;;;;8.50;6.07;;;;;;;;;;4976919;28;20035;-72
2021/05/15 02:11:02;;;;;;;6.15;5.18;;;;;;;;;;4977756;28;20034;-72
2021/05/15 02:13:28;;;;;;;6.53;5.35;;;;;;;;;;4977386;28;20074;-72
2021/05/15 02:15:55;;;;;;;6.53;5.75;;;;;;;;;;4976604;28;20484;-72
2021/05/15 02:18:21;;;;;;;6.35;5.72;;;;;;;;;;4977096;28;20031;-72
2021/05/15 02:20:47;;;;;;;5.82;5.05;;;;;;;;;;4977014;28;20049;-72
2021/05/15 02:23:14;;;;;;;7.35;5.18;;;;;;;;;;4976661;28;20055;-73
2021/05/15 02:25:40;;;;;;;8.23;5.88;;;;;;;;;;4977083;28;20481;-73
2021/05/15 02:28:06;;;;;;;5.95;5.35;;;;;;;;;;4976602;28;20492;-73
2021/05/15 02:30:32;;;;;;;6.40;4.85;;;;;;;;;;4976576;28;20346;-72
2021/05/15 02:32:58;;;;;;;4.93;4.53;;;;;;;;;;4976931;28;20034;-72
2021/05/15 02:35:24;;;;;;;5.55;5.05;;;;;;;;;;4976555;28;20465;-72
2021/05/15 02:37:51;;;;;;;5.07;4.57;;;;;;;;;;4976475;28;20038;-72
2021/05/15 02:40:17;;;;;;;5.53;4.43;;;;;;;;;;4977123;28;20417;-72
2021/05/15 02:42:43;;;;;;;4.97;4.43;;;;;;;;;;4976526;28;20027;-72
2021/05/15 02:45:10;;;;;;;5.38;4.88;;;;;;;;;;4976614;28;20034;-72
2021/05/15 02:47:37;;;;;;;6.03;4.05;;;;;;;;;;4976914;28;20069;-72
2021/05/15 02:50:04;;;;;;;5.13;4.68;;;;;;;;;;4975707;28;20031;-72
2021/05/15 02:52:30;;;;;;;4.75;4.35;;;;;;;;;;4976216;28;20058;-73
2021/05/15 02:54:56;;;;;;;5.10;4.57;;;;;;;;;;4976469;28;20057;-72
2021/05/15 02:57:22;;;;;;;4.20;3.80;;;;;;;;;;4976390;28;20031;-72
2021/05/15 02:59:48;;;;;;;6.05;5.00;;;;;;;;;;4976217;28;20027;-72
2021/05/15 03:02:14;;;;;;;5.68;4.43;;;;;;;;;;4976105;28;20019;-72
2021/05/15 03:04:40;;;;;;;5.20;3.97;;;;;;;;;;4976336;28;20457;-73
2021/05/15 03:07:06;;;;;;;5.80;3.90;;;;;;;;;;4975807;28;20030;-72
2021/05/15 03:09:32;;;;;;;3.78;3.33;;;;;;;;;;4976090;28;20027;-73
2021/05/15 03:11:58;;;;;;;4.20;3.22;;;;;;;;;;4975905;28;20372;-72
2021/05/15 03:14:24;;;;;;;5.32;3.97;;;;;;;;;;4976148;28;20042;-72
2021/05/15 03:16:50;;;;;;;4.47;4.07;;;;;;;;;;4975845;28;20354;-72
2021/05/15 03:19:17;;;;;;;4.22;3.83;;;;;;;;;;4976033;28;20027;-72
2021/05/15 03:21:43;;;;;;;4.22;3.85;;;;;;;;;;4975648;28;20480;-73
2021/05/15 03:24:09;;;;;;;3.80;3.28;;;;;;;;;;4975687;28;20448;-72
2021/05/15 03:26:35;;;;;;;3.92;3.60;;;;;;;;;;4976378;28;20019;-72
2021/05/15 03:29:01;;;;;;;4.40;3.53;;;;;;;;;;4975795;28;20026;-72
2021/05/15 03:31:27;;;;;;;3.58;3.28;;;;;;;;;;4975928;28;20035;-72
2021/05/15 03:33:53;;;;;;;4.70;4.30;;;;;;;;;;4975217;28;20063;-73
2021/05/15 03:36:21;;;;;;;4.35;3.17;;;;;;;;;;4975538;28;20077;-73
2021/05/15 03:38:47;;;;;;;3.75;3.45;;;;;;;;;;4975451;28;20030;-73
2021/05/15 03:41:13;;;;;;;4.38;3.80;;;;;;;;;;4975965;28;20515;-72
2021/05/15 03:43:39;;;;;;;3.85;3.47;;;;;;;;;;4975191;28;20049;-72
2021/05/15 03:46:05;;;;;;;4.05;3.65;;;;;;;;;;4975307;28;20114;-72
2021/05/15 03:48:32;;;;;;;3.53;2.92;;;;;;;;;;4975552;28;20030;-72
2021/05/15 03:50:58;;;;;;;4.55;3.33;;;;;;;;;;4975191;28;20027;-72
2021/05/15 03:53:24;;;;;;;4.78;2.92;;;;;;;;;;4975653;28;20030;-72
2021/05/15 03:55:50;;;;;;;3.72;3.17;;;;;;;;;;4975123;28;20449;-73
2021/05/15 03:58:16;;;;;;;4.72;3.72;;;;;;;;;;4975026;28;20034;-72
2021/05/15 04:00:42;;;;;;;3.33;3.03;;;;;;;;;;4975022;28;20034;-72
2021/05/15 04:03:09;;;;;;;5.70;2.80;;;;;;;;;;4974780;28;20023;-72
2021/05/15 04:05:35;;;;;;;3.33;2.72;;;;;;;;;;4974973;28;20113;-72
2021/05/15 04:08:01;;;;;;;2.72;2.53;;;;;;;;;;4974857;28;20551;-72
2021/05/15 04:10:27;;;;;;;3.20;2.90;;;;;;;;;;4975325;28;20080;-73
2021/05/15 04:13:13;;;;;;;;;;;;;;;;;;;;;
2021/05/15 04:15:44;;;;;;;3.17;2.88;;;;;;;;;;4960539;28;20492;-74
2021/05/15 04:18:11;;;;;;;5.72;3.72;;;;;;;;;;4974769;28;20058;-74
2021/05/15 04:20:37;;;;;;;3.13;2.83;;;;;;;;;;4974749;28;20473;-74
2021/05/15 04:23:04;;;;;;;3.47;3.17;;;;;;;;;;4975015;28;20026;-73
2021/05/15 04:25:30;;;;;;;3.40;2.53;;;;;;;;;;4974953;28;20038;-73
2021/05/15 04:27:56;;;;;;;3.63;2.95;;;;;;;;;;4974453;28;20109;-73
2021/05/15 04:30:22;;;;;;;3.00;2.70;;;;;;;;;;4974751;28;20392;-73
2021/05/15 04:32:48;;;;;;;3.22;2.92;;;;;;;;;;4974368;28;20027;-73
2021/05/15 04:35:14;;;;;;;3.58;2.90;;;;;;;;;;4975111;28;20532;-74
2021/05/15 04:37:41;;;;;;;2.92;2.50;;;;;;;;;;4975019;28;20034;-73
2021/05/15 04:40:07;;;;;;;3.28;2.95;;;;;;;;;;4972349;28;20463;-74
2021/05/15 04:42:33;;;;;;;3.00;2.78;;;;;;;;;;4975211;28;20102;-73
2021/05/15 04:44:59;;;;;;;3.65;3.35;;;;;;;;;;4975188;28;20373;-72
2021/05/15 04:47:25;;;;;;;3.95;3.10;;;;;;;;;;4973552;28;20098;-74
2021/05/15 04:49:51;;;;;;;3.28;2.97;;;;;;;;;;4974522;28;20050;-72
2021/05/15 04:52:17;;;;;;;2.60;2.40;;;;;;;;;;4974731;28;20062;-73
2021/05/15 04:54:43;;;;;;;2.97;2.67;;;;;;;;;;4974786;28;20485;-72
2021/05/15 04:57:09;;;;;;;2.50;2.30;;;;;;;;;;4973420;28;20477;-74
2021/05/15 04:59:35;;;;;;;2.88;2.50;;;;;;;;;;4974488;28;20034;-71
2021/05/15 05:02:01;;;;;;;2.97;2.70;;;;;;;;;;4974351;28;20469;-72
2021/05/15 05:04:27;;;;;;;2.45;2.25;;;;;;;;;;4974923;28;20050;-72
2021/05/15 05:06:54;;;;;;;5.18;2.88;;;;;;;;;;4974658;28;20027;-73
2021/05/15 05:09:20;;;;;;;4.60;2.80;;;;;;;;;;4972823;28;20034;-71
2021/05/15 05:11:47;;;;;;;2.60;2.40;;;;;;;;;;4974671;28;20031;-72
2021/05/15 05:14:14;;;;;;;6.63;2.70;;;;;;;;;;4978338;28;20503;-72
2021/05/15 05:16:40;;;;;;;3.63;3.33;;;;;;;;;;4978051;28;20350;-72
2021/05/15 05:19:06;;;;;;;3.78;2.35;;;;;;;;;;4976814;28;20023;-72
2021/05/15 05:21:32;;;;;;;7.97;2.90;;;;;;;;;;4978631;28;20062;-73
2021/05/15 05:23:58;;;;;;;3.05;2.50;;;;;;;;;;4978278;28;20066;-72
2021/05/15 05:26:25;;;;;;;5.22;3.58;;;;;;;;;;4978349;28;20473;-72
2021/05/15 05:28:51;;;;;;;8.90;3.17;;;;;;;;;;4976513;28;20137;-73
2021/05/15 05:31:17;;;;;;;3.53;3.10;;;;;;;;;;4978122;28;20027;-73
2021/05/15 05:33:43;;;;;;;3.55;2.80;;;;;;;;;;4978036;28;20058;-72
2021/05/15 05:36:09;;;;;;;7.95;2.83;;;;;;;;;;4977836;28;20034;-72
2021/05/15 05:38:36;;;;;;;3.65;3.40;;;;;;;;;;4976386;28;20022;-71
2021/05/15 05:41:02;;;;;;;5.68;3.92;;;;;;;;;;4978096;28;20038;-72
2021/05/15 05:43:28;;;;;;;5.05;3.55;;;;;;;;;;4978025;28;20027;-70
2021/05/15 05:45:54;;;;;;;8.30;3.40;;;;;;;;;;4996611;28;20091;-71
2021/05/15 05:48:20;;;;;;;7.35;3.55;;;;;;;;;;4985545;28;20492;-71
2021/05/15 05:50:46;;;;;;;4.80;3.53;;;;;;;;;;4977896;28;20031;-73
2021/05/15 05:53:12;;;;;;;3.92;3.03;;;;;;;;;;4977802;28;20536;-72
2021/05/15 05:55:38;;;;;;;3.90;3.35;;;;;;;;;;4977867;28;20109;-73
2021/05/15 05:58:05;;;;;;;3.70;3.17;;;;;;;;;;4976115;28;20488;-74
2021/05/15 06:00:31;;;;;;;12.98;3.60;;;;;;;;;;4977787;28;20549;-75
2021/05/15 06:02:57;;;;;;;4.18;3.15;;;;;;;;;;4977763;28;20038;-73
2021/05/15 06:05:23;;;;;;;4.38;3.53;;;;;;;;;;4977844;28;20035;-74
2021/05/15 06:07:50;;;;;;;3.67;3.30;;;;;;;;;;4976266;28;20030;-75
2021/05/15 06:10:16;;;;;;;3.97;3.58;;;;;;;;;;4977912;28;20039;-76
2021/05/15 06:12:42;;;;;;;10.82;3.33;;;;;;;;;;4977725;28;20105;-74
2021/05/15 06:15:08;;;;;;;4.85;3.03;;;;;;;;;;4977503;28;20368;-75
2021/05/15 06:17:34;;;;;;;3.47;3.10;;;;;;;;;;4975830;28;20027;-72
2021/05/15 06:20:00;;;;;;;4.15;3.47;;;;;;;;;;4977299;28;20027;-74
2021/05/15 06:22:26;;;;;;;3.80;3.50;;;;;;;;;;4977253;28;20068;-74
2021/05/15 06:24:53;;;;;;;3.17;2.92;;;;;;;;;;4976213;28;20166;-72
2021/05/15 06:27:19;;;;;;;6.75;3.90;;;;;;;;;;4975563;28;20492;-74
2021/05/15 06:29:45;;;;;;;8.95;3.13;;;;;;;;;;4977065;28;20546;-72
2021/05/15 06:32:11;;;;;;;4.00;3.20;;;;;;;;;;4976866;28;20027;-73
2021/05/15 06:34:37;;;;;;;7.65;3.35;;;;;;;;;;4977054;28;20027;-72
2021/05/15 06:37:03;;;;;;;7.57;3.20;;;;;;;;;;4976966;28;20030;-73
2021/05/15 06:39:29;;;;;;;4.75;3.45;;;;;;;;;;4975631;28;20109;-72
2021/05/15 06:41:55;;;;;;;3.88;3.05;;;;;;;;;;4976903;28;20461;-71
2021/05/15 06:44:21;;;;;;;7.97;2.95;;;;;;;;;;4976884;28;20435;-72
2021/05/15 06:46:47;;;;;;;5.80;3.55;;;;;;;;;;4976873;28;20031;-72
2021/05/15 06:49:13;;;;;;;5.28;2.97;;;;;;;;;;4975095;28;20069;-72
2021/05/15 06:51:40;;;;;;;3.45;3.05;;;;;;;;;;4976571;28;20027;-72
2021/05/15 06:54:07;;;;;;;5.22;3.13;;;;;;;;;;4976142;28;20041;-72
2021/05/15 06:56:33;;;;;;;3.15;2.85;;;;;;;;;;4976883;28;20126;-72
2021/05/15 06:58:59;;;;;;;4.28;3.70;;;;;;;;;;4974730;28;20034;-72
2021/05/15 07:01:25;;;;;;;3.90;3.50;;;;;;;;;;4976488;28;20665;-73
2021/05/15 07:03:51;;;;;;;8.20;3.75;;;;;;;;;;4976239;28;20114;-72
2021/05/15 07:06:17;;;;;;;3.35;3.05;;;;;;;;;;4972215;28;20035;-69
2021/05/15 07:08:44;;;;;;;3.95;3.40;;;;;;;;;;4973447;28;20054;-69
2021/05/15 07:11:10;;;;;;;3.20;2.90;;;;;;;;;;4976311;28;20023;-69
2021/05/15 07:13:36;;;;;;;3.30;2.80;;;;;;;;;;4984100;28;20058;-71
2021/05/15 07:16:02;;;;;;;3.75;3.45;;;;;;;;;;4994833;28;20540;-70
2021/05/15 07:18:28;;;;;;;9.07;3.78;;;;;;;;;;4982679;28;20389;-70
2021/05/15 07:20:54;;;;;;;4.50;3.40;;;;;;;;;;4975604;28;20491;-70
2021/05/15 07:23:20;;;;;;;3.85;3.40;;;;;;;;;;4975814;28;20425;-70
2021/05/15 07:25:46;;;;;;;5.90;3.70;;;;;;;;;;4975470;28;20041;-69
2021/05/15 07:28:12;;;;;;;5.22;3.85;;;;;;;;;;4974907;28;20162;-70
2021/05/15 07:30:38;;;;;;;4.25;3.85;;;;;;;;;;4994960;28;20384;-70
2021/05/15 07:33:07;;;;;;;4.85;3.40;;;;;;;;;;4995462;28;20053;-71
2021/05/15 07:35:33;;;;;;;11.35;4.57;;;;;;;;;;4994620;28;20435;-68
2021/05/15 07:37:59;;;;;;;7.10;3.83;;;;;;;;;;4979004;28;20034;-69
2021/05/15 07:40:25;;;;;;;3.75;3.42;;;;;;;;;;4974699;28;20487;-70
2021/05/15 07:42:51;;;;;;;4.95;3.58;;;;;;;;;;4973262;28;20034;-70
2021/05/15 07:45:17;;;;;;;4.65;4.10;;;;;;;;;;4973045;28;20030;-68
2021/05/15 07:47:43;;;;;;;8.27;4.38;;;;;;;;;;4975541;28;20058;-68
2021/05/15 07:50:09;;;;;;;5.43;3.92;;;;;;;;;;4974935;28;20086;-67
2021/05/15 07:52:36;;;;;;;7.75;3.88;;;;;;;;;;4974916;28;20077;-68
2021/05/15 07:55:02;;;;;;;7.55;4.60;;;;;;;;;;4973111;28;20058;-70
2021/05/15 07:57:28;;;;;;;14.35;4.13;;;;;;;;;;4973392;28;20046;-66
2021/05/15 07:59:54;;;;;;;10.68;3.45;;;;;;;;;;4973660;28;20026;-67
2021/05/15 08:02:21;;;;;;;10.40;4.53;;;;;;;;;;4974511;28;20023;-67
2021/05/15 08:04:47;;;;;;;10.85;5.55;;;;;;;;;;4973729;28;20469;-78
2021/05/15 08:07:13;;;;;;;7.30;4.40;;;;;;;;;;4974494;28;20392;-76
2021/05/15 08:09:39;;;;;;;15.85;6.00;;;;;;;;;;4974064;28;20027;-78
2021/05/15 08:12:06;;;;;;;11.00;4.15;;;;;;;;;;4973524;28;20019;-82
2021/05/15 08:14:32;;;;;;;12.90;5.45;;;;;;;;;;4972994;28;20094;-80
2021/05/15 08:16:58;;;;;;;10.70;4.90;;;;;;;;;;4973731;28;20385;-73
2021/05/15 08:19:24;;;;;;;9.45;5.72;;;;;;;;;;4973212;28;20026;-73
2021/05/15 08:21:50;;;;;;;11.43;5.68;;;;;;;;;;4974682;28;20523;-75
2021/05/15 08:24:16;;;;;;;12.85;7.00;;;;;;;;;;4974557;28;20038;-75
2021/05/15 08:26:44;;;;;;;16.08;6.93;;;;;;;;;;4974661;28;20031;-75
2021/05/15 08:29:12;;;;;;;17.10;6.78;;;;;;;;;;4974436;28;20023;-74
2021/05/15 08:31:38;;;;;;;8.70;5.32;;;;;;;;;;4974775;28;20034;-73
2021/05/15 08:34:04;;;;;;;11.13;6.53;;;;;;;;;;4973017;28;20037;-75
2021/05/15 08:36:30;;;;;;;12.82;5.53;;;;;;;;;;4973423;28;20492;-74
2021/05/15 08:38:57;;;;;;;11.07;5.93;;;;;;;;;;4974457;28;20027;-74
2021/05/15 08:41:23;;;;;;;42.30;10.15;;;;;;;;;;4974365;28;20038;-68
2021/05/15 08:43:49;;;;;;;14.98;6.20;;;;;;;;;;4973505;28;20077;-85
2021/05/15 08:46:15;;;;;;;10.93;6.00;;;;;;;;;;4974284;28;20563;-70
2021/05/15 08:48:42;;;;;;;16.77;6.70;;;;;;;;;;4972765;28;20027;-67
2021/05/15 08:51:08;;;;;;;10.80;6.32;;;;;;;;;;4981804;28;20030;-67
2021/05/15 08:53:34;;;;;;;15.73;6.47;;;;;;;;;;4981331;28;20026;-68
2021/05/15 08:56:01;;;;;;;8.10;5.63;;;;;;;;;;4973685;28;20062;-68
2021/05/15 08:58:27;;;;;;;8.02;6.55;;;;;;;;;;4973723;28;20023;-69
2021/05/15 09:00:53;;;;;;;7.53;5.78;;;;;;;;;;4974094;28;20473;-69
2021/05/15 09:03:20;;;;;;;9.05;6.47;;;;;;;;;;4972640;28;20037;-67
2021/05/15 09:05:47;;;;;;;6.53;5.90;;;;;;;;;;4973855;28;20194;-69
2021/05/15 09:08:13;;;;;;;13.55;6.43;;;;;;;;;;4972370;28;20397;-69
2021/05/15 09:10:40;;;;;;;8.55;6.28;;;;;;;;;;4974385;28;20031;-68
2021/05/15 09:13:22;;;;;;;7.57;6.63;;;;;;;;;;4971992;28;20054;-68
2021/05/15 09:15:49;;;;;;;10.70;6.72;;;;;;;;;;4974099;28;20030;-67
2021/05/15 09:18:15;;;;;;;9.93;6.28;;;;;;;;;;4974000;28;20145;-67
2021/05/15 09:20:42;;;;;;;11.88;6.93;;;;;;;;;;4972684;28;20023;-66
2021/05/15 09:23:12;;;;;;;13.75;6.57;;;;;;;;;;4971446;28;20027;-66
2021/05/15 09:25:38;;;;;;;8.32;6.72;;;;;;;;;;4972964;28;20027;-67
2021/05/15 09:28:04;;;;;;;9.25;8.18;;;;;;;;;;4971981;28;20039;-68
2021/05/15 09:30:31;;;;;;;11.77;6.05;;;;;;;;;;4971405;28;20027;-66
2021/05/15 09:32:57;;;;;;;10.65;7.80;;;;;;;;;;4971279;28;20019;-66
2021/05/15 09:35:25;;;;;;;9.73;8.00;;;;;;;;;;4971177;28;20037;-67
2021/05/15 09:37:51;;;;;;;12.07;9.20;;;;;;;;;;4953761;28;20071;-67
2021/05/15 09:40:18;;;;;;;7.68;6.72;;;;;;;;;;4972399;28;20034;-71
2021/05/15 09:42:52;;;;;;;9.80;7.53;;;;;;;;;;4971786;28;20468;-67
2021/05/15 09:45:35;;;;;;;9.57;6.95;;;;;;;;;;4968555;28;20031;-66
2021/05/15 09:48:02;;;;;;;13.90;6.43;;;;;;;;;;4969840;28;20077;-67
2021/05/15 09:50:29;;;;;;;11.63;7.15;;;;;;;;;;4971916;28;20093;-70
2021/05/15 09:53:03;;;;;;;12.25;7.10;;;;;;;;;;4969156;28;20058;-67
2021/05/15 09:55:29;;;;;;;18.08;8.80;;;;;;;;;;4970338;28;20035;-68
2021/05/15 09:57:55;;;;;;;12.60;10.10;;;;;;;;;;4971809;28;20366;-68
2021/05/15 10:00:22;;;;;;;21.60;9.77;;;;;;;;;;4973561;28;20075;-67
2021/05/15 10:02:56;;;;;;;11.93;9.88;;;;;;;;;;4975233;28;20031;-67
2021/05/15 10:05:23;;;;;;;12.40;8.70;;;;;;;;;;4975652;28;20073;-67
2021/05/15 10:07:49;;;;;;;13.98;9.40;;;;;;;;;;4976669;28;20034;-74
2021/05/15 10:10:15;;;;;;;10.68;8.32;;;;;;;;;;4976814;28;20054;-66
2021/05/15 10:12:41;;;;;;;9.43;8.52;;;;;;;;;;4976893;28;20132;-67
2021/05/15 10:15:08;;;;;;;9.32;8.43;;;;;;;;;;4977156;28;20035;-67
2021/05/15 10:17:34;;;;;;;10.63;9.40;;;;;;;;;;4976506;28;20033;-67
2021/05/15 10:20:04;;;;;;;12.40;9.38;;;;;;;;;;4976748;28;20354;-67
2021/05/15 10:22:33;;;;;;;11.60;10.52;;;;;;;;;;4976263;28;20030;-67
2021/05/15 10:25:00;;;;;;;13.88;9.98;;;;;;;;;;4976283;28;20037;-67
2021/05/15 10:27:26;;;;;;;12.93;11.75;;;;;;;;;;4976640;28;20114;-66
2021/05/15 10:29:53;;;;;;;17.80;11.10;;;;;;;;;;4976266;28;20465;-67
2021/05/15 10:32:22;;;;;;;13.63;11.75;;;;;;;;;;4976223;28;20034;-67
2021/05/15 10:34:50;;;;;;;16.42;12.55;;;;;;;;;;4975143;28;20019;-67
2021/05/15 10:37:16;;;;;;;19.90;15.30;;;;;;;;;;4976019;28;20019;-67
2021/05/15 10:39:42;;;;;;;34.63;21.55;;;;;;;;;;4976444;28;20114;-67
2021/05/15 10:42:08;;;;;;;29.52;23.05;;;;;;;;;;4976282;28;20429;-67
2021/05/15 10:44:42;;;;;;;30.75;27.48;;;;;;;;;;4976185;28;20121;-68
2021/05/15 10:47:08;;;;;;;40.20;35.47;;;;;;;;;;4976098;28;20065;-68
2021/05/15 10:49:34;;;;;;;57.75;51.85;;;;;;;;;;4976453;28;20077;-67
2021/05/15 10:52:09;;;;;;;74.95;67.18;;;;;;;;;;4976240;28;20029;-68
2021/05/15 10:54:35;;;;;;;77.15;69.97;;;;;;;;;;4975986;28;20070;-67
2021/05/15 10:57:03;;;;;;;80.15;72.13;;;;;;;;;;4975831;28;20543;-67
2021/05/15 10:59:30;;;;;;;77.47;67.47;;;;;;;;;;4975734;28;20027;-67
2021/05/15 11:01:57;;;;;;;73.55;66.43;;;;;;;;;;4976050;28;20023;-66
2021/05/15 11:04:25;;;;;;;72.43;65.28;;;;;;;;;;4975598;28;20035;-66
2021/05/15 11:07:11;;;;;;;62.00;56.13;;;;;;;;;;4957700;28;20027;-67
2021/05/15 11:09:38;;;;;;;55.95;50.30;;;;;;;;;;4957578;28;20019;-67
2021/05/15 11:12:04;;;;;;;56.33;51.35;;;;;;;;;;4969880;28;20019;-67
2021/05/15 11:14:31;;;;;;;58.60;50.22;;;;;;;;;;4970275;28;20507;-67
2021/05/15 11:17:17;;;;;;;49.03;44.00;;;;;;;;;;4968064;28;20393;-67
2021/05/15 11:19:54;;;;;;;47.78;34.83;;;;;;;;;;4953314;28;20189;-69
2021/05/15 11:22:21;;;;;;;43.88;39.67;;;;;;;;;;4969017;28;20109;-69
2021/05/15 11:24:51;;;;;;;42.83;34.70;;;;;;;;;;4964601;28;20035;-66
2021/05/15 11:27:18;;;;;;;29.67;27.02;;;;;;;;;;4967620;28;20027;-66
2021/05/15 11:29:45;;;;;;;30.75;27.52;;;;;;;;;;4969091;28;20463;-66
2021/05/15 11:32:11;;;;;;;30.45;27.42;;;;;;;;;;4969167;28;20023;-66
2021/05/15 11:34:37;;;;;;;33.67;25.98;;;;;;;;;;4966376;28;20078;-68
2021/05/15 11:37:04;;;;;;;31.45;27.70;;;;;;;;;;4967887;28;20158;-68
2021/05/15 11:39:30;;;;;;;26.73;23.90;;;;;;;;;;4968549;28;20031;-68
2021/05/15 11:42:04;;;;;;;25.00;22.75;;;;;;;;;;4968814;28;20031;-70
2021/05/15 11:44:30;;;;;;;25.30;22.67;;;;;;;;;;4967346;28;20032;-67
2021/05/15 11:46:56;;;;;;;29.63;22.77;;;;;;;;;;4969187;28;20035;-71
2021/05/15 11:49:23;;;;;;;31.00;19.88;;;;;;;;;;4968462;28;20499;-67
2021/05/15 11:52:09;;;;;;;22.17;20.20;;;;;;;;;;4966611;28;20046;-73
2021/05/15 11:54:36;;;;;;;21.27;19.25;;;;;;;;;;4957918;28;20380;-67
2021/05/15 11:57:02;;;;;;;18.95;17.08;;;;;;;;;;4973004;28;20074;-67
2021/05/15 11:59:28;;;;;;;19.60;17.90;;;;;;;;;;4973034;28;20073;-67
2021/05/15 12:01:54;;;;;;;19.27;17.17;;;;;;;;;;4972443;28;20118;-69
2021/05/15 12:04:30;;;;;;;18.83;17.02;;;;;;;;;;4971273;28;20078;-66
2021/05/15 12:06:58;;;;;;;18.08;15.63;;;;;;;;;;4969347;28;20031;-67
2021/05/15 12:09:24;;;;;;;19.13;16.08;;;;;;;;;;4973438;28;20023;-70
2021/05/15 12:12:11;;;;;;;16.15;14.55;;;;;;;;;;4972725;28;20042;-68
2021/05/15 12:14:39;;;;;;;17.20;15.40;;;;;;;;;;4957677;28;20046;-66
2021/05/15 12:17:06;;;;;;;14.80;13.48;;;;;;;;;;4972905;28;20122;-67
2021/05/15 12:19:32;;;;;;;14.73;13.35;;;;;;;;;;4973543;28;20122;-67
2021/05/15 12:22:07;;;;;;;15.15;13.80;;;;;;;;;;4973323;28;20392;-67
2021/05/15 12:24:36;;;;;;;13.25;12.05;;;;;;;;;;4972528;28;20037;-66
2021/05/15 12:27:06;;;;;;;14.80;12.10;;;;;;;;;;4970032;28;20023;-66
2021/05/15 12:29:32;;;;;;;14.48;13.10;;;;;;;;;;4973954;28;20465;-66
2021/05/15 12:31:58;;;;;;;12.60;11.32;;;;;;;;;;4974312;28;20031;-68
2021/05/15 12:34:24;;;;;;;13.35;12.02;;;;;;;;;;4973813;28;20023;-67
2021/05/15 12:36:51;;;;;;;13.00;11.77;;;;;;;;;;4972429;28;20469;-67
2021/05/15 12:39:17;;;;;;;13.48;12.15;;;;;;;;;;4969989;28;20022;-66
2021/05/15 12:41:44;;;;;;;10.88;9.93;;;;;;;;;;4974321;28;20484;-66
2021/05/15 12:44:11;;;;;;;11.15;10.05;;;;;;;;;;4973558;28;20058;-67
2021/05/15 12:46:38;;;;;;;10.52;9.73;;;;;;;;;;4974984;28;20077;-67
2021/05/15 12:49:06;;;;;;;10.15;9.25;;;;;;;;;;4974018;28;20026;-66
2021/05/15 12:51:33;;;;;;;11.23;10.13;;;;;;;;;;4974702;28;20030;-67
2021/05/15 12:53:59;;;;;;;9.77;8.77;;;;;;;;;;4973700;28;20237;-66
2021/05/15 12:56:30;;;;;;;9.57;8.73;;;;;;;;;;4973986;28;20030;-66
2021/05/15 12:58:56;;;;;;;10.13;9.20;;;;;;;;;;4973586;28;20139;-76
2021/05/15 13:01:22;;;;;;;8.35;7.55;;;;;;;;;;4973503;28;20085;-66
2021/05/15 13:03:49;;;;;;;8.68;7.88;;;;;;;;;;4973754;28;20027;-72
2021/05/15 13:06:16;;;;;;;8.20;7.50;;;;;;;;;;4987995;28;20065;-67
2021/05/15 13:08:42;;;;;;;7.78;7.00;;;;;;;;;;4993182;28;20028;-67
2021/05/15 13:11:09;;;;;;;8.52;7.72;;;;;;;;;;4993391;28;20037;-69
2021/05/15 13:13:35;;;;;;;8.75;6.45;;;;;;;;;;4977748;28;20720;-69
2021/05/15 13:16:03;;;;;;;7.63;6.93;;;;;;;;;;4972607;28;20472;-68
2021/05/15 13:18:29;;;;;;;11.38;7.15;;;;;;;;;;4972735;28;20031;-69
2021/05/15 13:20:55;;;;;;;7.53;6.82;;;;;;;;;;4972333;28;20102;-70
2021/05/15 13:23:21;;;;;;;7.90;7.25;;;;;;;;;;4972014;28;20019;-69
2021/05/15 13:25:47;;;;;;;8.32;6.63;;;;;;;;;;4972280;28;20030;-68
2021/05/15 13:28:13;;;;;;;4.85;4.45;;;;;;;;;;4973090;28;20069;-70
2021/05/15 13:30:41;;;;;;;5.40;4.70;;;;;;;;;;4973206;28;20428;-70
2021/05/15 13:33:07;;;;;;;3.80;3.17;;;;;;;;;;4973529;28;20119;-72
2021/05/15 13:35:33;;;;;;;3.20;2.42;;;;;;;;;;4972055;28;20392;-72
2021/05/15 13:37:59;;;;;;;2.88;2.67;;;;;;;;;;4977163;28;20092;-72
2021/05/15 13:40:25;;;;;;;10.77;3.15;;;;;;;;;;4977280;28;20544;-72
2021/05/15 13:42:51;;;;;;;6.13;2.75;;;;;;;;;;4976722;28;20508;-73
2021/05/15 13:45:17;;;;;;;2.70;2.50;;;;;;;;;;4976951;28;20043;-70
2021/05/15 13:47:51;;;;;;;6.75;3.08;;;;;;;;;;4976865;28;20035;-72
2021/05/15 13:50:18;;;;;;;14.32;3.17;;;;;;;;;;4976661;28;20026;-70
2021/05/15 13:52:44;;;;;;;7.70;2.42;;;;;;;;;;4976002;28;20022;-70
2021/05/15 13:55:10;;;;;;;10.13;3.35;;;;;;;;;;4977061;28;20031;-72
2021/05/15 13:57:36;;;;;;;14.55;3.72;;;;;;;;;;4995356;28;20037;-71
2021/05/15 14:00:03;;;;;;;6.93;3.35;;;;;;;;;;4996157;28;20571;-71
2021/05/15 14:02:29;;;;;;;15.73;3.85;;;;;;;;;;4992588;28;20031;-71
2021/05/15 14:04:55;;;;;;;10.25;2.90;;;;;;;;;;4977439;28;20039;-71
2021/05/15 14:07:22;;;;;;;5.15;3.33;;;;;;;;;;4976581;28;20027;-73
2021/05/15 14:09:48;;;;;;;6.25;3.40;;;;;;;;;;4976719;28;20027;-73
2021/05/15 14:12:14;;;;;;;13.57;3.65;;;;;;;;;;4976125;28;20055;-71
2021/05/15 14:14:40;;;;;;;8.35;3.60;;;;;;;;;;4975758;28;20031;-73
2021/05/15 14:17:08;;;;;;;6.93;2.97;;;;;;;;;;4975931;28;20601;-70
2021/05/15 14:19:34;;;;;;;8.05;3.97;;;;;;;;;;4996178;28;20030;-69
2021/05/15 14:22:00;;;;;;;3.92;3.35;;;;;;;;;;4984726;28;20023;-71
2021/05/15 14:24:27;;;;;;;12.75;3.15;;;;;;;;;;4956561;28;20038;-71
2021/05/15 14:26:53;;;;;;;11.98;3.47;;;;;;;;;;4975704;28;20114;-85
2021/05/15 14:29:19;;;;;;;3.03;2.78;;;;;;;;;;4937593;28;20037;-72
2021/05/15 14:31:45;;;;;;;5.97;4.03;;;;;;;;;;4953914;28;20038;-71
2021/05/15 14:34:11;;;;;;;3.45;3.03;;;;;;;;;;4941277;28;20031;-82